Maersk Essen — V7UQ8 — position and weather

sailwx.info

Track history (hours):
 
Tides and Currents Weather Stations Pressure Air Temp Water Temp Dewpoint Dewpoint Depression Visibility Wind Speed Wind Dir Waves Ship Positions

Maersk Essen

Last reported at 2015-Sep-05 11:32 UTC. Time now 2015-Sep-05 12:19 UTC.
Position N 51°57' E 004°02'.

Length 367 m; draft 11.7 m.

Type: Ship (hazmat cat A). MMSI: 538004007.

Date/timePositionNaut miles runAvg speedWind from/ knotsBaromVisibWave heightAir tempDewpointWater temp
2015-Sep-05 11:32N 51°57' E 004°02'0 0.0
2015-Sep-05 10:32N 51°57' E 004°02'0 0.0
2015-Sep-05 09:32N 51°57' E 004°02'0 0.0
2015-Sep-05 08:32N 51°57' E 004°02'0 0.0
2015-Sep-05 07:32N 51°57' E 004°02'0 0.0
2015-Sep-05 06:32N 51°57' E 004°02'0 0.0
2015-Sep-05 05:32N 51°57' E 004°02'0 0.4
2015-Sep-05 04:34N 51°58' E 004°03'3 2.7
2015-Sep-05 03:34N 51°60' E 004°00'9 8.9
2015-Sep-05 02:34N 51°59' E 003°46'1616.1
2015-Sep-05 01:33N 51°55' E 003°21'4417.8
2015-Sep-04 23:05N 51°53' E 002°09'1018.1
2015-Sep-04 22:33N 51°49' E 001°55'1212.5
2015-Sep-04 21:34N 51°52' E 001°36'1110.7
2015-Sep-04 20:34N 51°55' E 001°19'3 2.6
2015-Sep-04 19:31N 51°58' E 001°17'0 0.0
2015-Sep-04 18:31N 51°58' E 001°17'0 0.0
2015-Sep-04 17:31N 51°58' E 001°17'0 0.0
2015-Sep-04 16:31N 51°58' E 001°17'0 0.0
2015-Sep-04 15:31N 51°58' E 001°17'0 0.0
2015-Sep-04 14:31N 51°58' E 001°17'0 0.0
2015-Sep-04 13:31N 51°58' E 001°17'0 0.0
2015-Sep-04 12:31N 51°58' E 001°17'0 0.0
2015-Sep-04 11:31N 51°58' E 001°17'0 0.0
2015-Sep-04 10:28N 51°58' E 001°17'0 0.0
2015-Sep-04 09:31N 51°58' E 001°17'0 0.0
2015-Sep-04 08:31N 51°58' E 001°17'0 0.0
2015-Sep-04 07:31N 51°58' E 001°17'0 0.0
2015-Sep-04 06:31N 51°58' E 001°17'0 0.0
2015-Sep-04 05:31N 51°58' E 001°17'0 0.0
2015-Sep-04 04:31N 51°58' E 001°17'0 0.0
2015-Sep-04 03:31N 51°58' E 001°17'0 0.0
2015-Sep-04 02:31N 51°58' E 001°17'0 0.0
2015-Sep-04 01:31N 51°58' E 001°17'0 0.0
2015-Sep-04 00:31N 51°58' E 001°17'0 0.0
2015-Sep-03 23:31N 51°58' E 001°17'0 0.0
2015-Sep-03 22:31N 51°58' E 001°17'0 0.0
2015-Sep-03 21:31N 51°58' E 001°17'0 0.0
2015-Sep-03 20:31N 51°58' E 001°17'0 0.0
2015-Sep-03 19:31N 51°58' E 001°17'0 0.0
2015-Sep-03 18:31N 51°58' E 001°17'0 0.0
2015-Sep-03 17:31N 51°58' E 001°17'0 0.0
2015-Sep-03 16:31N 51°58' E 001°17'0 0.0
2015-Sep-03 15:31N 51°58' E 001°17'0 0.0
2015-Sep-03 14:31N 51°58' E 001°17'0 0.0
2015-Sep-03 13:31N 51°58' E 001°17'0 0.0
2015-Sep-03 12:31N 51°58' E 001°17'0 0.0
2015-Sep-03 11:31N 51°58' E 001°17'0 0.0
2015-Sep-03 10:31N 51°58' E 001°17'0 0.0
2015-Sep-03 09:31N 51°58' E 001°17'0 0.0
2015-Sep-03 08:31N 51°58' E 001°17'0 0.0
2015-Sep-03 07:31N 51°58' E 001°17'0 0.0
2015-Sep-03 06:31N 51°58' E 001°17'0 0.0
2015-Sep-03 05:31N 51°58' E 001°17'0 0.0
2015-Sep-03 04:31N 51°58' E 001°17'0 0.4
2015-Sep-03 03:33N 51°58' E 001°18'5 4.7
2015-Sep-03 02:34N 51°56' E 001°25'9 8.6
2015-Sep-03 01:33N 51°52' E 001°37'8 7.6
2015-Sep-03 00:33N 51°50' E 001°49'1212.1
2015-Sep-02 23:34N 51°38' E 001°50'1 1.1
2015-Sep-02 22:34N 51°38' E 001°51'2 2.2
2015-Sep-02 21:33N 51°36' E 001°51'1616.4
2015-Sep-02 20:33N 51°20' E 001°59'1918.8
2015-Sep-02 19:33N 51°06' E 001°40'2019.8
2015-Sep-02 18:33N 50°48' E 001°25'4619.6
2015-Sep-02 16:12N 50°22' E 000°26'78216.6
2015-Aug-31 17:07N 39°33' W 009°51'1018.1
2015-Aug-31 16:33N 39°22' W 009°51'1817.9
2015-Aug-31 15:34N 39°05' W 009°52'1817.8
2015-Aug-31 14:34N 38°47' W 009°52'1817.6
2015-Aug-31 13:33N 38°30' W 009°47'1817.8
2015-Aug-31 12:34N 38°12' W 009°42'1818.3
2015-Aug-31 11:34N 37°55' W 009°37'1818.3
2015-Aug-31 10:33N 37°37' W 009°32'1818.0
2015-Aug-31 09:33N 37°19' W 009°27'1818.1
2015-Aug-31 08:32N 37°01' W 009°21'1717.1
2015-Aug-31 07:33N 36°47' W 009°11'1818.0
2015-Aug-31 06:33N 36°41' W 008°50'1818.0
2015-Aug-31 05:33N 36°35' W 008°29'1818.3
2015-Aug-31 04:33N 36°28' W 008°07'3618.0
2015-Aug-31 02:33N 36°18' W 007°24'1817.8
2015-Aug-31 01:33N 36°13' W 007°03'1818.1
2015-Aug-31 00:33N 36°06' W 006°42'33417.5
2015-Aug-30 05:32N 36°54' E 000°09'2018.4
2015-Aug-30 04:26N 36°59' E 000°33'21718.2
2015-Aug-29 16:32N 37°41' E 005°01'13618.8
2015-Aug-29 09:20N 37°43' E 007°52'7018.0
2015-Aug-29 05:27N 37°42' E 009°20'10417.4
2015-Aug-28 23:29N 37°19' E 011°28'2018.2
2015-Aug-28 22:22N 37°09' E 011°51'9217.8
2015-Aug-28 17:12N 36°39' E 013°40'1218.4
2015-Aug-28 16:33N 36°36' E 013°54'1918.7
2015-Aug-28 15:33N 36°31' E 014°16'1818.4
2015-Aug-28 14:33N 36°25' E 014°37'1918.8
2015-Aug-28 13:33N 36°20' E 014°60'79720.4
2015-Aug-26 22:27N 32°15' E 030°18'1921.9
2015-Aug-26 21:33N 32°09' E 030°39'4621.6
2015-Aug-26 19:27N 31°55' E 031°30'  
Track history (hours):
 
Tides and Currents Weather Stations Pressure Air Temp Water Temp Dewpoint Dewpoint Depression Visibility Wind Speed Wind Dir Waves Ship Positions

Maersk Essen

Last reported at 2015-Sep-05 11:32 UTC. Time now 2015-Sep-05 12:19 UTC.
Position N 51°57' E 004°02'.

Length 367 m; draft 11.7 m.

Type: Ship (hazmat cat A). MMSI: 538004007.

Date/timePositionNaut miles runAvg speedWind from/ knotsBaromVisibWave heightAir tempDewpointWater temp
2015-Sep-05 11:32N 51°57' E 004°02'0 0.0
2015-Sep-05 10:32N 51°57' E 004°02'0 0.0
2015-Sep-05 09:32N 51°57' E 004°02'0 0.0
2015-Sep-05 08:32N 51°57' E 004°02'0 0.0
2015-Sep-05 07:32N 51°57' E 004°02'0 0.0
2015-Sep-05 06:32N 51°57' E 004°02'0 0.0
2015-Sep-05 05:32N 51°57' E 004°02'0 0.4
2015-Sep-05 04:34N 51°58' E 004°03'3 2.7
2015-Sep-05 03:34N 51°60' E 004°00'9 8.9
2015-Sep-05 02:34N 51°59' E 003°46'1616.1
2015-Sep-05 01:33N 51°55' E 003°21'4417.8
2015-Sep-04 23:05N 51°53' E 002°09'1018.1
2015-Sep-04 22:33N 51°49' E 001°55'1212.5
2015-Sep-04 21:34N 51°52' E 001°36'1110.7
2015-Sep-04 20:34N 51°55' E 001°19'3 2.6
2015-Sep-04 19:31N 51°58' E 001°17'0 0.0
2015-Sep-04 18:31N 51°58' E 001°17'0 0.0
2015-Sep-04 17:31N 51°58' E 001°17'0 0.0
2015-Sep-04 16:31N 51°58' E 001°17'0 0.0
2015-Sep-04 15:31N 51°58' E 001°17'0 0.0
2015-Sep-04 14:31N 51°58' E 001°17'0 0.0
2015-Sep-04 13:31N 51°58' E 001°17'0 0.0
2015-Sep-04 12:31N 51°58' E 001°17'0 0.0
2015-Sep-04 11:31N 51°58' E 001°17'0 0.0
2015-Sep-04 10:28N 51°58' E 001°17'0 0.0
2015-Sep-04 09:31N 51°58' E 001°17'0 0.0
2015-Sep-04 08:31N 51°58' E 001°17'0 0.0
2015-Sep-04 07:31N 51°58' E 001°17'0 0.0
2015-Sep-04 06:31N 51°58' E 001°17'0 0.0
2015-Sep-04 05:31N 51°58' E 001°17'0 0.0
2015-Sep-04 04:31N 51°58' E 001°17'0 0.0
2015-Sep-04 03:31N 51°58' E 001°17'0 0.0
2015-Sep-04 02:31N 51°58' E 001°17'0 0.0
2015-Sep-04 01:31N 51°58' E 001°17'0 0.0
2015-Sep-04 00:31N 51°58' E 001°17'0 0.0
2015-Sep-03 23:31N 51°58' E 001°17'0 0.0
2015-Sep-03 22:31N 51°58' E 001°17'0 0.0
2015-Sep-03 21:31N 51°58' E 001°17'0 0.0
2015-Sep-03 20:31N 51°58' E 001°17'0 0.0
2015-Sep-03 19:31N 51°58' E 001°17'0 0.0
2015-Sep-03 18:31N 51°58' E 001°17'0 0.0
2015-Sep-03 17:31N 51°58' E 001°17'0 0.0
2015-Sep-03 16:31N 51°58' E 001°17'0 0.0
2015-Sep-03 15:31N 51°58' E 001°17'0 0.0
2015-Sep-03 14:31N 51°58' E 001°17'0 0.0
2015-Sep-03 13:31N 51°58' E 001°17'0 0.0
2015-Sep-03 12:31N 51°58' E 001°17'0 0.0
2015-Sep-03 11:31N 51°58' E 001°17'0 0.0
2015-Sep-03 10:31N 51°58' E 001°17'0 0.0
2015-Sep-03 09:31N 51°58' E 001°17'0 0.0
2015-Sep-03 08:31N 51°58' E 001°17'0 0.0
2015-Sep-03 07:31N 51°58' E 001°17'0 0.0
2015-Sep-03 06:31N 51°58' E 001°17'0 0.0
2015-Sep-03 05:31N 51°58' E 001°17'0 0.0
2015-Sep-03 04:31N 51°58' E 001°17'0 0.4
2015-Sep-03 03:33N 51°58' E 001°18'5 4.7
2015-Sep-03 02:34N 51°56' E 001°25'9 8.6
2015-Sep-03 01:33N 51°52' E 001°37'8 7.6
2015-Sep-03 00:33N 51°50' E 001°49'1212.1
2015-Sep-02 23:34N 51°38' E 001°50'1 1.1
2015-Sep-02 22:34N 51°38' E 001°51'2 2.2
2015-Sep-02 21:33N 51°36' E 001°51'1616.4
2015-Sep-02 20:33N 51°20' E 001°59'1918.8
2015-Sep-02 19:33N 51°06' E 001°40'2019.8
2015-Sep-02 18:33N 50°48' E 001°25'4619.6
2015-Sep-02 16:12N 50°22' E 000°26'78216.6
2015-Aug-31 17:07N 39°33' W 009°51'1018.1
2015-Aug-31 16:33N 39°22' W 009°51'1817.9
2015-Aug-31 15:34N 39°05' W 009°52'1817.8
2015-Aug-31 14:34N 38°47' W 009°52'1817.6
2015-Aug-31 13:33N 38°30' W 009°47'1817.8
2015-Aug-31 12:34N 38°12' W 009°42'1818.3
2015-Aug-31 11:34N 37°55' W 009°37'1818.3
2015-Aug-31 10:33N 37°37' W 009°32'1818.0
2015-Aug-31 09:33N 37°19' W 009°27'1818.1
2015-Aug-31 08:32N 37°01' W 009°21'1717.1
2015-Aug-31 07:33N 36°47' W 009°11'1818.0
2015-Aug-31 06:33N 36°41' W 008°50'1818.0
2015-Aug-31 05:33N 36°35' W 008°29'1818.3
2015-Aug-31 04:33N 36°28' W 008°07'3618.0
2015-Aug-31 02:33N 36°18' W 007°24'1817.8
2015-Aug-31 01:33N 36°13' W 007°03'1818.1
2015-Aug-31 00:33N 36°06' W 006°42'33417.5
2015-Aug-30 05:32N 36°54' E 000°09'2018.4
2015-Aug-30 04:26N 36°59' E 000°33'21718.2
2015-Aug-29 16:32N 37°41' E 005°01'13618.8
2015-Aug-29 09:20N 37°43' E 007°52'7018.0
2015-Aug-29 05:27N 37°42' E 009°20'10417.4
2015-Aug-28 23:29N 37°19' E 011°28'2018.2
2015-Aug-28 22:22N 37°09' E 011°51'9217.8
2015-Aug-28 17:12N 36°39' E 013°40'1218.4
2015-Aug-28 16:33N 36°36' E 013°54'1918.7
2015-Aug-28 15:33N 36°31' E 014°16'1818.4
2015-Aug-28 14:33N 36°25' E 014°37'1918.8
2015-Aug-28 13:33N 36°20' E 014°60'79720.4
2015-Aug-26 22:27N 32°15' E 030°18'1921.9
2015-Aug-26 21:33N 32°09' E 030°39'4621.6
2015-Aug-26 19:27N 31°55' E 031°30'  

Dump ship's entire track history